Time;durP1;ratioP1;P1;durP2;ratioP2;P2;SDS_P1;SDS_P2;PMS_P1;PMS_P2;Temp;Humidity;BMP_temperature;BMP_pressure;BME280_temperature;BME280_humidity;BME280_pressure;Samples;Min_cycle;Max_cycle;Signal;HPM_P1;HPM_P2
2023/02/19 00:01:11;;;;;;;0.20;0.20;;;18.00;39.60;;;;;;5119127;27;20214;-86
2023/02/19 00:03:37;;;;;;;0.22;0.22;;;18.00;39.70;;;;;;5136392;27;20726;-85
2023/02/19 00:06:04;;;;;;;0.40;0.28;;;18.00;39.70;;;;;;5118900;27;20179;-85
2023/02/19 00:08:32;;;;;;;0.40;0.30;;;18.00;39.70;;;;;;5102164;27;20633;-85
2023/02/19 00:11:06;;;;;;;0.30;0.30;;;18.00;39.80;;;;;;5118940;27;20246;-86
2023/02/19 00:13:36;;;;;;;0.35;0.30;;;18.00;39.80;;;;;;5101930;27;20250;-86
2023/02/19 00:16:06;;;;;;;0.60;0.30;;;17.90;39.80;;;;;;5135823;27;20609;-85
2023/02/19 00:18:32;;;;;;;0.70;0.45;;;18.00;39.80;;;;;;5118844;27;20155;-85
2023/02/19 00:20:58;;;;;;;0.45;0.30;;;17.90;39.80;;;;;;5135835;27;20191;-86
2023/02/19 00:23:25;;;;;;;0.40;0.30;;;17.90;39.80;;;;;;5118124;27;20163;-86
2023/02/19 00:25:51;;;;;;;0.30;0.20;;;17.90;39.90;;;;;;5102335;27;20167;-85
2023/02/19 00:28:17;;;;;;;0.90;0.40;;;17.90;39.90;;;;;;5101483;27;20305;-85
2023/02/19 00:30:42;;;;;;;0.63;0.25;;;17.90;39.90;;;;;;5135869;27;20159;-85
2023/02/19 00:33:08;;;;;;;0.55;0.30;;;17.90;40.00;;;;;;5101354;27;20167;-85
2023/02/19 00:35:34;;;;;;;0.40;0.30;;;17.90;40.00;;;;;;5135497;27;20242;-85
2023/02/19 00:38:00;;;;;;;0.30;0.20;;;17.90;40.10;;;;;;5101831;27;20168;-85
2023/02/19 00:40:26;;;;;;;0.20;0.20;;;17.90;40.00;;;;;;5101068;27;20660;-85
2023/02/19 00:42:51;;;;;;;0.28;0.28;;;17.90;40.10;;;;;;5135414;27;20143;-87
2023/02/19 00:45:17;;;;;;;0.40;0.20;;;17.90;40.10;;;;;;5101552;27;20254;-85
2023/02/19 00:47:43;;;;;;;0.35;0.30;;;17.90;40.10;;;;;;5118186;27;20251;-85
2023/02/19 00:50:09;;;;;;;0.30;0.30;;;17.90;40.10;;;;;;5135401;27;20633;-85
2023/02/19 00:52:34;;;;;;;0.20;0.20;;;17.90;40.10;;;;;;5101003;27;20178;-86
2023/02/19 00:55:00;;;;;;;0.52;0.30;;;17.90;40.20;;;;;;5101386;27;20186;-85
2023/02/19 00:57:26;;;;;;;0.47;0.30;;;17.90;40.20;;;;;;5117834;27;20167;-85
2023/02/19 00:59:51;;;;;;;0.40;0.20;;;17.90;40.10;;;;;;5134732;27;20215;-85
2023/02/19 01:02:17;;;;;;;0.22;0.22;;;17.90;40.30;;;;;;5117883;27;20250;-85
2023/02/19 01:04:42;;;;;;;0.35;0.30;;;17.90;40.20;;;;;;5100689;27;20155;-85
2023/02/19 01:07:08;;;;;;;0.22;0.22;;;17.80;40.20;;;;;;5117624;27;20160;-85
2023/02/19 01:09:34;;;;;;;0.57;0.25;;;17.80;40.20;;;;;;5134821;27;20205;-86
2023/02/19 01:11:59;;;;;;;0.30;0.20;;;17.90;40.30;;;;;;5118063;27;20574;-86
2023/02/19 01:14:25;;;;;;;0.98;0.55;;;17.80;40.20;;;;;;5134987;27;20151;-86
2023/02/19 01:16:51;;;;;;;0.38;0.32;;;17.90;40.30;;;;;;5101260;27;20191;-85
2023/02/19 01:19:16;;;;;;;0.32;0.30;;;17.80;40.30;;;;;;5101323;27;20163;-86
2023/02/19 01:21:42;;;;;;;0.63;0.30;;;17.80;40.30;;;;;;5134785;27;20186;-86
2023/02/19 01:24:08;;;;;;;0.45;0.30;;;17.90;40.30;;;;;;5117475;27;20621;-85
2023/02/19 01:26:34;;;;;;;0.25;0.25;;;17.80;40.30;;;;;;5117722;27;20190;-85
2023/02/19 01:28:59;;;;;;;0.30;0.20;;;17.90;40.40;;;;;;5117403;27;20158;-85
2023/02/19 01:31:25;;;;;;;0.30;0.30;;;17.90;41.00;;;;;;5117261;27;20166;-85
2023/02/19 01:33:55;;;;;;;0.20;0.20;;;17.90;40.40;;;;;;5100103;27;20591;-88
2023/02/19 01:36:21;;;;;;;0.20;0.20;;;17.80;40.40;;;;;;5100295;27;20167;-85
2023/02/19 01:38:47;;;;;;;0.40;0.28;;;17.90;40.40;;;;;;5134210;27;20155;-85
2023/02/19 01:41:14;;;;;;;0.77;0.30;;;17.80;40.40;;;;;;5134192;27;20537;-85
2023/02/19 01:44:01;;;;;;;0.35;0.30;;;17.80;41.10;;;;;;5100482;27;20166;-86
2023/02/19 01:46:31;;;;;;;0.60;0.30;;;17.90;40.40;;;;;;5116970;27;20246;-85
2023/02/19 01:48:59;;;;;;;0.40;0.30;;;17.80;40.40;;;;;;5100040;27;20610;-85
2023/02/19 01:51:26;;;;;;;0.40;0.20;;;17.80;40.50;;;;;;5135181;27;20270;-85
2023/02/19 01:53:54;;;;;;;0.28;0.20;;;17.80;40.50;;;;;;5135092;27;20583;-85
2023/02/19 01:56:20;;;;;;;0.50;0.25;;;17.80;40.50;;;;;;5134092;27;20771;-85
2023/02/19 01:58:46;;;;;;;0.55;0.30;;;17.70;40.50;;;;;;5099685;27;20167;-85
2023/02/19 02:01:12;;;;;;;0.35;0.30;;;17.80;40.50;;;;;;5099480;27;20275;-85
2023/02/19 02:03:38;;;;;;;0.30;0.30;;;17.80;40.50;;;;;;5117190;27;20519;-86
2023/02/19 02:06:08;;;;;;;0.30;0.30;;;17.80;40.50;;;;;;5117007;27;20156;-86
2023/02/19 02:11:12;;;;;;;0.75;0.30;;;17.80;40.60;;;;;;5118420;27;20159;-86
2023/02/19 02:13:38;;;;;;;0.20;0.20;;;17.80;40.60;;;;;;5133426;27;20172;-86
2023/02/19 02:16:36;;;;;;;0.30;0.30;;;17.80;40.60;;;;;;5116507;27;20649;-85
2023/02/19 02:19:28;;;;;;;0.68;0.32;;;17.80;40.70;;;;;;5121381;27;20163;-86
2023/02/19 02:22:04;;;;;;;0.82;0.40;;;17.80;40.70;;;;;;5133267;27;20684;-84
2023/02/19 02:24:56;;;;;;;0.88;0.30;;;17.80;40.70;;;;;;5117338;27;20514;-86
2023/02/19 02:27:47;;;;;;;0.30;0.30;;;17.80;40.70;;;;;;5118133;27;20146;-85
2023/02/19 02:30:25;;;;;;;0.90;0.30;;;17.80;40.70;;;;;;5116057;27;20178;-85
2023/02/19 02:32:59;;;;;;;0.30;0.30;;;17.70;40.70;;;;;;5116681;27;20239;-85
2023/02/19 02:35:29;;;;;;;0.30;0.20;;;17.80;40.80;;;;;;5100367;27;20249;-85
2023/02/19 02:37:56;;;;;;;0.20;0.20;;;17.70;40.80;;;;;;5116544;27;20155;-85
2023/02/19 02:40:22;;;;;;;0.70;0.40;;;17.80;40.80;;;;;;5116199;27;20191;-86
2023/02/19 02:42:47;;;;;;;0.30;0.25;;;17.70;40.70;;;;;;5133193;27;20152;-86
2023/02/19 02:48:22;;;;;;;0.25;0.25;;;17.70;40.80;;;;;;5118233;27;20144;-85
2023/02/19 02:50:56;;;;;;;0.60;0.45;;;17.70;40.80;;;;;;5133015;27;20178;-85
2023/02/19 02:56:13;;;;;;;0.20;0.20;;;17.70;40.80;;;;;;5133163;28;20216;-86
2023/02/19 02:58:38;;;;;;;0.50;0.40;;;17.70;40.70;;;;;;5098887;28;20175;-86
2023/02/19 03:03:56;;;;;;;0.30;0.30;;;17.70;40.80;;;;;;5118885;28;20167;-87
2023/02/19 03:06:23;;;;;;;1.00;0.40;;;17.80;40.90;;;;;;5116334;28;20618;-85
2023/02/19 03:09:04;;;;;;;1.38;0.30;;;17.70;40.80;;;;;;5115894;28;20159;-86
2023/02/19 03:19:53;;;;;;;0.35;0.35;;;17.70;40.90;;;;;;5118981;28;20618;-86
2023/02/19 03:22:24;;;;;;;0.30;0.20;;;17.70;40.90;;;;;;5099658;28;20255;-86
2023/02/19 03:27:31;;;;;;;0.40;0.30;;;17.70;40.90;;;;;;5134016;28;20148;-86
2023/02/19 03:29:58;;;;;;;0.80;0.30;;;17.70;41.00;;;;;;5098626;28;20299;-86
2023/02/19 03:32:28;;;;;;;0.20;0.20;;;17.70;41.00;;;;;;5115676;28;20152;-87
2023/02/19 03:34:56;;;;;;;0.40;0.30;;;17.70;41.00;;;;;;5099352;28;20602;-85
2023/02/19 03:37:46;;;;;;;0.28;0.20;;;17.70;41.00;;;;;;5099288;28;20159;-85
2023/02/19 03:40:11;;;;;;;0.40;0.30;;;17.70;41.00;;;;;;5133008;28;20187;-85
2023/02/19 03:42:48;;;;;;;0.40;0.20;;;17.70;41.00;;;;;;5098556;28;20274;-85
2023/02/19 03:45:32;;;;;;;0.25;0.25;;;17.70;41.00;;;;;;5116447;28;20674;-85
2023/02/19 03:48:26;;;;;;;0.30;0.30;;;17.70;41.10;;;;;;5115402;28;20208;-85
2023/02/19 03:51:02;;;;;;;0.45;0.32;;;17.70;41.70;;;;;;5132697;28;20156;-85
2023/02/19 03:54:06;;;;;;;0.80;0.45;;;17.70;41.10;;;;;;5098782;28;20254;-85
2023/02/19 03:56:37;;;;;;;0.20;0.20;;;17.70;41.10;;;;;;5132320;28;20252;-85
2023/02/19 03:59:09;;;;;;;0.80;0.40;;;17.70;41.10;;;;;;5100676;27;20163;-84
2023/02/19 04:01:47;;;;;;;0.20;0.20;;;17.70;41.10;;;;;;5101835;27;20231;-85
2023/02/19 04:04:17;;;;;;;0.35;0.30;;;17.70;41.10;;;;;;5136347;27;20175;-85
2023/02/19 04:06:44;;;;;;;0.20;0.20;;;17.70;41.10;;;;;;5102192;27;20209;-86
2023/02/19 04:09:10;;;;;;;0.30;0.22;;;17.70;41.10;;;;;;5119197;27;20227;-85
2023/02/19 04:11:36;;;;;;;0.45;0.20;;;17.70;41.10;;;;;;5118982;27;20151;-85
2023/02/19 04:14:05;;;;;;;0.20;0.20;;;17.70;41.10;;;;;;5135990;27;20561;-85
2023/02/19 04:16:32;;;;;;;0.32;0.20;;;17.60;41.10;;;;;;5101901;27;20223;-86
2023/02/19 04:19:01;;;;;;;0.55;0.30;;;17.70;41.10;;;;;;5102227;27;20178;-85
2023/02/19 04:21:28;;;;;;;0.60;0.30;;;17.70;41.20;;;;;;5101939;27;20198;-85
2023/02/19 04:23:54;;;;;;;0.47;0.30;;;17.60;41.20;;;;;;5118659;27;20155;-85
2023/02/19 04:26:19;;;;;;;0.20;0.20;;;17.70;41.20;;;;;;5135787;27;20155;-86
2023/02/19 04:28:45;;;;;;;0.52;0.40;;;17.60;41.20;;;;;;5135625;27;20155;-86
2023/02/19 04:31:11;;;;;;;0.50;0.30;;;17.60;41.20;;;;;;5101457;27;20529;-86
2023/02/19 04:33:37;;;;;;;0.30;0.20;;;17.70;41.20;;;;;;5135554;27;20616;-86
2023/02/19 04:36:03;;;;;;;0.22;0.20;;;17.70;41.20;;;;;;5135465;27;20155;-86
2023/02/19 04:38:28;;;;;;;1.00;0.50;;;17.60;41.20;;;;;;5118330;27;20256;-86
2023/02/19 04:40:54;;;;;;;0.30;0.20;;;17.60;41.20;;;;;;5101564;27;20253;-86
2023/02/19 04:43:20;;;;;;;0.20;0.20;;;17.60;41.30;;;;;;5118612;27;20178;-86
2023/02/19 04:45:45;;;;;;;0.45;0.30;;;17.60;41.20;;;;;;5101203;27;20163;-85
2023/02/19 04:48:11;;;;;;;0.17;0.17;;;17.60;41.30;;;;;;5118119;27;20243;-85
2023/02/19 04:50:38;;;;;;;0.52;0.30;;;17.60;41.30;;;;;;5118056;27;20151;-85
2023/02/19 04:53:04;;;;;;;0.30;0.30;;;17.60;41.30;;;;;;5118192;27;20151;-86
2023/02/19 04:55:30;;;;;;;0.40;0.22;;;17.60;41.30;;;;;;5118107;27;20171;-85
2023/02/19 04:57:56;;;;;;;0.47;0.20;;;17.60;41.20;;;;;;5101398;27;20167;-85
2023/02/19 05:00:21;;;;;;;0.20;0.20;;;17.60;41.20;;;;;;5100519;27;20259;-86
2023/02/19 05:02:47;;;;;;;0.63;0.40;;;17.60;41.30;;;;;;5117847;27;20172;-85
2023/02/19 05:05:13;;;;;;;0.63;0.20;;;17.60;41.30;;;;;;5100681;27;20175;-85
2023/02/19 05:07:38;;;;;;;0.30;0.28;;;17.60;41.30;;;;;;5134806;27;20174;-84
2023/02/19 05:10:04;;;;;;;0.50;0.30;;;17.60;41.30;;;;;;5116692;27;20175;-85
2023/02/19 05:12:30;;;;;;;0.20;0.20;;;17.60;41.40;;;;;;5118174;27;20164;-86
2023/02/19 05:14:56;;;;;;;0.20;0.20;;;17.60;41.40;;;;;;5100585;27;20231;-85
2023/02/19 05:17:21;;;;;;;0.30;0.30;;;17.60;41.50;;;;;;5117636;27;20162;-85
2023/02/19 05:19:47;;;;;;;0.77;0.38;;;17.50;41.50;;;;;;5100937;27;20248;-85
2023/02/19 05:22:13;;;;;;;0.30;0.22;;;17.60;41.50;;;;;;5100396;27;20581;-85
2023/02/19 05:24:38;;;;;;;0.90;0.40;;;17.50;41.40;;;;;;5134693;27;20177;-85
2023/02/19 05:27:04;;;;;;;0.52;0.40;;;17.60;41.50;;;;;;5117279;27;20178;-85
2023/02/19 05:29:30;;;;;;;0.57;0.30;;;17.50;41.50;;;;;;5100465;27;20171;-85
2023/02/19 05:31:56;;;;;;;0.30;0.20;;;17.60;41.60;;;;;;5117590;27;20629;-85
2023/02/19 05:34:21;;;;;;;0.32;0.30;;;17.60;41.50;;;;;;5134666;27;20175;-85
2023/02/19 05:36:47;;;;;;;0.30;0.30;;;17.60;41.60;;;;;;5134210;27;20557;-85
2023/02/19 05:39:13;;;;;;;0.50;0.30;;;17.60;41.50;;;;;;5117600;27;20167;-85
2023/02/19 05:41:38;;;;;;;0.40;0.30;;;17.60;41.60;;;;;;5117055;27;20187;-85
2023/02/19 05:44:04;;;;;;;0.40;0.30;;;17.60;41.60;;;;;;5100333;27;20192;-86
2023/02/19 05:46:30;;;;;;;0.40;0.20;;;17.50;41.50;;;;;;5100063;27;20167;-85
2023/02/19 05:48:57;;;;;;;0.20;0.15;;;17.60;41.50;;;;;;5099918;27;20178;-85
2023/02/19 05:51:23;;;;;;;0.43;0.30;;;17.50;41.50;;;;;;5100204;27;20642;-86
2023/02/19 05:53:49;;;;;;;0.30;0.20;;;17.50;41.50;;;;;;5100190;27;20178;-86
2023/02/19 05:56:35;;;;;;;0.30;0.22;;;17.60;41.60;;;;;;5100426;27;20174;-86
2023/02/19 05:59:05;;;;;;;0.25;0.25;;;17.50;41.50;;;;;;5119758;27;20151;-85
2023/02/19 06:01:31;;;;;;;0.38;0.30;;;17.60;41.60;;;;;;5100319;27;20231;-85
2023/02/19 06:03:56;;;;;;;0.20;0.20;;;17.50;41.50;;;;;;5134993;27;20200;-85
2023/02/19 06:06:22;;;;;;;0.30;0.30;;;17.60;41.60;;;;;;5133884;27;20147;-86
2023/02/19 06:08:49;;;;;;;0.20;0.20;;;17.60;41.60;;;;;;5133678;27;20231;-85
2023/02/19 06:11:15;;;;;;;0.20;0.20;;;17.50;41.60;;;;;;5100157;27;20178;-85
2023/02/19 06:13:41;;;;;;;0.22;0.20;;;17.50;41.60;;;;;;5099622;27;20167;-85
2023/02/19 06:16:07;;;;;;;0.20;0.20;;;17.50;41.50;;;;;;5099476;27;20167;-86
2023/02/19 06:18:33;;;;;;;0.32;0.30;;;17.60;41.60;;;;;;5099645;27;20233;-86
2023/02/19 06:21:04;;;;;;;0.30;0.20;;;17.60;41.60;;;;;;5133168;27;20652;-85
2023/02/19 06:23:30;;;;;;;0.32;0.20;;;17.50;41.50;;;;;;5116554;27;20161;-86
2023/02/19 06:26:05;;;;;;;0.20;0.10;;;17.60;41.60;;;;;;5099666;27;20163;-85
2023/02/19 06:28:31;;;;;;;0.35;0.30;;;17.60;41.60;;;;;;5100040;27;20173;-86
2023/02/19 06:30:58;;;;;;;0.20;0.20;;;17.50;41.60;;;;;;5116544;28;20172;-85
2023/02/19 06:33:25;;;;;;;0.20;0.20;;;17.50;41.60;;;;;;5116306;27;20677;-85
2023/02/19 06:35:50;;;;;;;0.20;0.20;;;17.60;41.70;;;;;;5099263;27;20216;-86
2023/02/19 06:38:16;;;;;;;0.38;0.25;;;17.50;41.60;;;;;;5099403;28;20171;-86
2023/02/19 06:40:41;;;;;;;0.22;0.20;;;17.50;41.70;;;;;;5099133;27;20194;-86
2023/02/19 06:43:07;;;;;;;0.30;0.30;;;17.50;41.60;;;;;;5099137;27;20705;-86
2023/02/19 06:45:33;;;;;;;0.28;0.28;;;17.50;41.60;;;;;;5133225;27;20151;-86
2023/02/19 06:47:59;;;;;;;0.30;0.28;;;17.50;41.70;;;;;;5116066;28;20514;-86
2023/02/19 06:50:24;;;;;;;0.22;0.22;;;17.50;41.60;;;;;;5116735;27;20182;-85
2023/02/19 06:52:50;;;;;;;0.30;0.25;;;17.50;41.60;;;;;;5116371;28;20186;-84
2023/02/19 06:55:15;;;;;;;0.25;0.25;;;17.50;41.60;;;;;;5133071;28;20159;-85
2023/02/19 06:57:41;;;;;;;0.47;0.40;;;17.50;41.60;;;;;;5116037;28;20668;-85
2023/02/19 07:00:08;;;;;;;0.20;0.20;;;17.50;41.60;;;;;;5132681;28;20559;-85
2023/02/19 07:02:33;;;;;;;0.38;0.30;;;17.50;41.70;;;;;;5115773;28;20164;-85
2023/02/19 07:04:59;;;;;;;0.43;0.30;;;17.50;41.70;;;;;;5116284;28;20271;-85
2023/02/19 07:07:24;;;;;;;0.63;0.32;;;17.50;41.70;;;;;;5098839;28;20170;-85
2023/02/19 07:09:50;;;;;;;0.70;0.55;;;17.50;41.60;;;;;;5115830;28;20159;-86
2023/02/19 07:12:16;;;;;;;0.65;0.30;;;17.50;41.60;;;;;;5115621;28;20204;-85
2023/02/19 07:14:41;;;;;;;0.25;0.25;;;17.50;41.70;;;;;;5115830;28;20182;-86
2023/02/19 07:17:07;;;;;;;0.47;0.30;;;17.60;41.70;;;;;;5116519;28;20211;-86
2023/02/19 07:19:32;;;;;;;0.20;0.20;;;17.50;41.70;;;;;;5115669;28;20216;-85
2023/02/19 07:21:58;;;;;;;0.30;0.30;;;17.50;41.70;;;;;;5115700;28;20194;-86
2023/02/19 07:24:24;;;;;;;0.25;0.22;;;17.50;41.70;;;;;;5115928;28;20158;-86
2023/02/19 07:26:50;;;;;;;1.00;0.40;;;17.50;41.70;;;;;;5133968;28;20239;-86
2023/02/19 07:29:15;;;;;;;0.52;0.30;;;17.50;41.70;;;;;;5115719;28;20182;-86
2023/02/19 07:31:41;;;;;;;0.47;0.30;;;17.50;41.70;;;;;;5098586;28;20209;-86
2023/02/19 07:34:07;;;;;;;0.30;0.20;;;17.50;41.70;;;;;;5100540;27;20167;-86
2023/02/19 07:36:33;;;;;;;0.30;0.30;;;17.50;41.70;;;;;;5136813;27;20159;-86
2023/02/19 07:38:58;;;;;;;0.35;0.30;;;17.60;41.70;;;;;;5136573;27;20212;-86
2023/02/19 07:41:24;;;;;;;0.30;0.20;;;17.60;41.70;;;;;;5102347;27;20199;-86
2023/02/19 07:43:50;;;;;;;0.30;0.20;;;17.50;41.70;;;;;;5137011;27;20190;-85
2023/02/19 07:46:16;;;;;;;0.28;0.20;;;17.50;41.70;;;;;;5136591;27;20148;-86
2023/02/19 07:48:42;;;;;;;0.20;0.20;;;17.50;41.70;;;;;;5103143;27;20160;-85
2023/02/19 07:51:12;;;;;;;1.30;0.20;;;17.50;41.70;;;;;;5119095;27;20219;-87
2023/02/19 07:53:49;;;;;;;0.22;0.22;;;17.60;41.80;;;;;;5109243;27;20172;-88
2023/02/19 07:56:18;;;;;;;0.45;0.40;;;17.50;41.80;;;;;;5105489;27;20658;-85
2023/02/19 07:58:47;;;;;;;0.55;0.30;;;17.50;41.80;;;;;;5119835;27;20208;-84
2023/02/19 08:04:01;;;;;;;2.20;0.30;;;17.70;41.60;;;;;;5105591;28;20678;-84
2023/02/19 08:06:26;;;;;;;0.20;0.20;;;17.80;41.60;;;;;;5103365;28;20179;-84
2023/02/19 08:08:52;;;;;;;3.83;0.30;;;17.80;41.70;;;;;;5101625;28;20176;-83
2023/02/19 08:14:00;;;;;;;4.43;0.30;;;17.90;41.40;;;;;;5101337;28;20214;-83
2023/02/19 08:16:29;;;;;;;5.93;0.60;;;17.90;41.50;;;;;;5098548;28;20157;-83
2023/02/19 08:19:22;;;;;;;6.47;0.40;;;17.80;41.50;;;;;;5083444;28;20195;-83
2023/02/19 08:21:49;;;;;;;12.07;0.70;;;17.80;41.60;;;;;;5036575;28;20215;-83
2023/02/19 08:24:15;;;;;;;6.78;0.60;;;17.80;41.60;;;;;;5019750;28;20190;-84
2023/02/19 08:26:40;;;;;;;11.75;0.80;;;17.90;41.80;;;;;;5006568;28;20216;-85
2023/02/19 08:29:06;;;;;;;3.97;0.50;;;17.90;41.70;;;;;;5019922;28;20175;-84
2023/02/19 08:31:33;;;;;;;5.22;0.70;;;17.90;42.30;;;;;;5001877;28;20699;-83
2023/02/19 08:33:59;;;;;;;9.48;0.75;;;18.00;42.10;;;;;;5029697;28;20209;-84
2023/02/19 08:36:56;;;;;;;15.07;1.27;;;18.10;41.30;;;;;;5047216;28;20189;-84
2023/02/19 08:39:21;;;;;;;8.30;0.80;;;18.20;41.20;;;;;;5057670;28;20268;-85
2023/02/19 08:41:47;;;;;;;5.63;0.73;;;18.20;41.10;;;;;;5061714;28;20224;-87
2023/02/19 08:44:14;;;;;;;14.40;0.98;;;18.30;41.00;;;;;;5065395;28;20655;-86
2023/02/19 08:46:40;;;;;;;11.27;0.90;;;18.30;40.80;;;;;;5046934;28;20178;-86
2023/02/19 08:49:12;;;;;;;11.73;0.75;;;18.40;40.90;;;;;;5063809;28;20158;-85
2023/02/19 08:51:38;;;;;;;8.43;1.05;;;18.40;40.80;;;;;;5071095;28;20186;-85
2023/02/19 08:54:06;;;;;;;18.52;1.15;;;18.40;40.70;;;;;;5063584;28;20289;-87
2023/02/19 08:56:35;;;;;;;19.02;1.35;;;18.40;40.80;;;;;;5051535;28;20306;-85
2023/02/19 08:59:59;;;;;;;11.38;1.02;;;18.40;40.80;;;;;;5116402;27;20191;-83
2023/02/19 09:02:11;;;;;;;9.55;1.52;;;18.50;41.00;;;;;;5112841;28;20279;-83
2023/02/19 09:04:56;;;;;;;17.33;1.45;;;18.50;41.10;;;;;;5086720;28;20210;-86
2023/02/19 09:07:26;;;;;;;20.30;1.80;;;18.50;41.40;;;;;;5069406;28;20184;-86
2023/02/19 09:10:02;;;;;;;18.70;1.35;;;18.50;41.50;;;;;;5087220;28;20176;-85
2023/02/19 09:12:39;;;;;;;18.20;1.63;;;18.60;41.20;;;;;;5035527;28;20191;-87
2023/02/19 09:15:06;;;;;;;17.25;1.58;;;18.60;41.10;;;;;;5062521;28;20192;-85
2023/02/19 09:17:34;;;;;;;19.70;1.58;;;18.60;41.10;;;;;;5063440;28;20248;-86
2023/02/19 09:20:09;;;;;;;15.10;1.30;;;18.70;41.00;;;;;;5044367;28;20190;-88
2023/02/19 09:22:59;;;;;;;12.82;1.35;;;18.70;40.80;;;;;;5045573;28;20181;-87
2023/02/19 09:25:27;;;;;;;12.07;1.20;;;18.70;40.70;;;;;;5047502;28;20670;-86
2023/02/19 09:27:58;;;;;;;18.83;1.50;;;18.80;40.80;;;;;;5046688;28;20592;-86
2023/02/19 09:30:29;;;;;;;10.13;1.05;;;18.70;40.80;;;;;;5048823;28;20224;-88
2023/02/19 09:32:55;;;;;;;12.73;1.17;;;18.70;40.20;;;;;;5031692;28;20185;-87
2023/02/19 09:35:53;;;;;;;11.05;0.93;;;18.80;40.30;;;;;;5050733;28;20181;-88
2023/02/19 09:38:22;;;;;;;11.82;1.30;;;18.80;40.20;;;;;;5050941;28;20181;-87
2023/02/19 09:40:48;;;;;;;15.00;1.10;;;18.80;40.10;;;;;;5063275;28;20204;-87
2023/02/19 09:43:17;;;;;;;9.75;1.20;;;18.80;40.20;;;;;;5030486;28;20292;-87
2023/02/19 09:45:43;;;;;;;9.00;1.00;;;18.90;40.40;;;;;;5046296;28;20176;-87
2023/02/19 09:48:10;;;;;;;15.35;1.30;;;18.80;40.60;;;;;;5117849;27;20191;-84
2023/02/19 09:50:46;;;;;;;11.55;1.42;;;18.90;40.70;;;;;;5110141;27;20171;-86
2023/02/19 09:53:20;;;;;;;12.10;1.40;;;18.90;41.10;;;;;;5128040;27;20177;-86
2023/02/19 09:55:48;;;;;;;13.52;0.90;;;18.90;40.70;;;;;;5108853;27;20181;-86
2023/02/19 09:58:25;;;;;;;14.93;1.20;;;18.90;41.30;;;;;;5123045;27;20148;-85
2023/02/19 10:00:57;;;;;;;7.03;1.10;;;18.90;41.90;;;;;;5106816;28;20204;-84
2023/02/19 10:03:32;;;;;;;10.73;1.30;;;18.90;41.30;;;;;;5102042;28;20176;-86
2023/02/19 10:06:01;;;;;;;15.77;1.08;;;18.80;41.80;;;;;;5084727;28;20704;-86
2023/02/19 10:08:30;;;;;;;11.43;1.08;;;18.80;41.70;;;;;;5084577;28;20175;-87
2023/02/19 10:10:57;;;;;;;12.10;1.20;;;18.70;41.30;;;;;;5085862;28;20187;-87
2023/02/19 10:13:44;;;;;;;11.65;1.05;;;18.70;41.70;;;;;;5088177;28;20275;-86
2023/02/19 10:16:15;;;;;;;10.80;0.82;;;18.70;41.50;;;;;;5102412;28;20183;-88
2023/02/19 10:18:42;;;;;;;9.88;0.90;;;18.70;41.00;;;;;;5085850;28;20299;-87
2023/02/19 10:21:18;;;;;;;11.90;1.27;;;18.70;41.20;;;;;;5084246;28;20219;-87
2023/02/19 10:23:49;;;;;;;6.70;0.77;;;18.50;41.30;;;;;;5069641;28;20616;-87
2023/02/19 10:26:15;;;;;;;10.23;1.13;;;18.60;40.80;;;;;;5086278;28;20184;-87
2023/02/19 10:28:40;;;;;;;9.02;0.93;;;18.60;41.20;;;;;;5102880;28;20179;-88
2023/02/19 10:31:17;;;;;;;12.02;1.10;;;18.60;40.90;;;;;;5104263;27;20179;-86
2023/02/19 10:33:55;;;;;;;9.90;0.80;;;18.60;41.30;;;;;;5136487;27;20666;-87
2023/02/19 10:36:25;;;;;;;6.90;0.82;;;18.60;40.90;;;;;;5138240;27;20159;-86
2023/02/19 10:38:51;;;;;;;7.00;0.80;;;18.60;41.20;;;;;;5123475;27;20201;-87
2023/02/19 10:41:19;;;;;;;7.80;1.00;;;18.60;41.60;;;;;;5103318;27;20203;-87
2023/02/19 10:44:06;;;;;;;5.55;0.90;;;18.60;41.80;;;;;;5120968;27;20173;-87
2023/02/19 10:46:36;;;;;;;11.35;0.90;;;18.60;41.20;;;;;;5125360;28;20253;-88
2023/02/19 10:49:04;;;;;;;8.00;0.93;;;18.60;41.50;;;;;;5108148;27;20167;-87
2023/02/19 10:51:33;;;;;;;6.07;0.60;;;18.60;41.80;;;;;;5104124;27;20167;-87
2023/02/19 10:54:16;;;;;;;3.97;0.52;;;18.50;41.40;;;;;;5122644;28;20575;-87
2023/02/19 10:56:42;;;;;;;3.38;0.60;;;18.60;41.90;;;;;;5123576;28;20171;-87
2023/02/19 10:59:24;;;;;;;12.90;1.08;;;18.60;41.80;;;;;;5122437;28;20156;-87
2023/02/19 11:02:14;;;;;;;6.32;1.20;;;18.60;42.50;;;;;;5120516;28;20214;-87
2023/02/19 11:04:41;;;;;;;9.07;0.80;;;18.60;42.00;;;;;;5138024;28;20154;-87
2023/02/19 11:07:12;;;;;;;7.13;0.70;;;18.50;42.30;;;;;;5121290;27;20156;-87
2023/02/19 11:09:39;;;;;;;5.20;0.75;;;18.60;42.60;;;;;;5106742;27;20208;-87
2023/02/19 11:12:06;;;;;;;3.83;0.60;;;18.50;42.90;;;;;;5125339;27;20159;-86
2023/02/19 11:14:33;;;;;;;4.10;0.63;;;18.50;42.20;;;;;;5109288;27;20171;-87
2023/02/19 11:16:59;;;;;;;3.50;0.57;;;18.50;41.90;;;;;;5125658;27;20232;-86
2023/02/19 11:19:30;;;;;;;6.10;0.52;;;18.50;41.70;;;;;;5143295;27;20152;-87
2023/02/19 11:21:57;;;;;;;6.85;1.00;;;18.60;41.60;;;;;;5108648;27;20661;-87
2023/02/19 11:24:29;;;;;;;6.75;0.88;;;18.60;42.00;;;;;;5126170;27;20186;-87
2023/02/19 11:26:56;;;;;;;9.00;0.70;;;18.60;42.10;;;;;;5126068;27;20155;-87
2023/02/19 11:29:23;;;;;;;5.93;0.60;;;18.60;41.80;;;;;;5126639;27;20147;-88
2023/02/19 11:31:49;;;;;;;5.78;0.55;;;18.60;41.40;;;;;;5109516;27;20171;-87
2023/02/19 11:34:28;;;;;;;10.52;0.80;;;18.60;41.70;;;;;;5109256;27;20167;-88
2023/02/19 11:37:12;;;;;;;9.45;1.08;;;18.60;41.90;;;;;;5143224;27;20515;-88
2023/02/19 11:39:41;;;;;;;8.70;1.00;;;18.70;42.30;;;;;;5126596;27;20540;-87
2023/02/19 11:42:44;;;;;;;8.38;0.60;;;18.60;42.30;;;;;;5107192;27;20203;-86
2023/02/19 11:45:17;;;;;;;10.75;0.70;;;18.60;41.80;;;;;;5141304;27;20171;-87
2023/02/19 11:47:57;;;;;;;5.85;0.68;;;18.60;41.60;;;;;;5107107;27;20250;-88
2023/02/19 11:50:54;;;;;;;8.57;0.70;;;18.70;42.20;;;;;;5139920;27;20161;-86
2023/02/19 11:53:27;;;;;;;8.32;1.00;;;18.60;41.50;;;;;;5142221;27;20152;-86
2023/02/19 11:56:17;;;;;;;11.43;0.90;;;18.60;41.60;;;;;;5139029;27;20614;-87
2023/02/19 11:58:57;;;;;;;13.10;1.10;;;18.60;42.20;;;;;;5125273;27;20151;-87
2023/02/19 12:01:54;;;;;;;9.27;0.55;;;18.60;42.30;;;;;;5122665;27;20211;-86
2023/02/19 12:04:48;;;;;;;5.32;0.85;;;18.60;42.30;;;;;;5143115;27;20175;-87
2023/02/19 12:07:54;;;;;;;9.27;0.95;;;18.60;41.80;;;;;;5141312;27;20156;-86
2023/02/19 12:10:43;;;;;;;5.80;0.52;;;18.60;41.80;;;;;;5143329;27;20171;-85
2023/02/19 12:13:31;;;;;;;10.20;0.93;;;18.70;41.20;;;;;;5110754;27;20263;-86
2023/02/19 12:16:08;;;;;;;10.88;1.00;;;18.70;41.10;;;;;;5121883;27;20164;-87
2023/02/19 12:18:49;;;;;;;20.98;1.17;;;18.70;41.90;;;;;;5105992;27;20167;-87
2023/02/19 12:21:21;;;;;;;13.40;1.30;;;18.70;41.30;;;;;;5124390;27;20240;-87
2023/02/19 12:24:09;;;;;;;13.07;1.08;;;18.70;41.30;;;;;;5122351;27;20281;-86
2023/02/19 12:26:54;;;;;;;11.07;0.80;;;18.60;41.90;;;;;;5145323;27;20148;-87
2023/02/19 12:29:46;;;;;;;13.80;0.88;;;18.60;41.50;;;;;;5130521;27;20163;-87
2023/02/19 12:32:27;;;;;;;10.48;0.98;;;18.70;41.80;;;;;;5130008;27;20258;-87
2023/02/19 12:35:09;;;;;;;10.50;0.98;;;18.60;41.30;;;;;;5113573;27;20530;-88
2023/02/19 12:38:03;;;;;;;9.25;0.80;;;18.60;41.50;;;;;;5113202;27;20167;-87
2023/02/19 12:40:41;;;;;;;6.95;0.68;;;18.60;41.40;;;;;;5129768;27;20206;-88
2023/02/19 12:43:20;;;;;;;6.85;0.77;;;18.70;41.50;;;;;;5130940;27;20170;-85
2023/02/19 12:45:51;;;;;;;8.05;0.85;;;18.60;41.40;;;;;;5148813;27;20242;-86
2023/02/19 12:48:28;;;;;;;6.80;0.68;;;18.60;41.70;;;;;;5129891;27;20488;-85
2023/02/19 12:51:13;;;;;;;8.25;0.60;;;18.70;41.20;;;;;;5115184;27;20162;-86
2023/02/19 12:54:05;;;;;;;7.28;0.70;;;18.70;41.20;;;;;;5133581;27;20167;-86
2023/02/19 12:57:18;;;;;;;6.32;0.65;;;18.70;41.50;;;;;;5128732;27;20175;-86
2023/02/19 12:59:54;;;;;;;5.03;0.40;;;18.70;41.00;;;;;;5122530;27;20189;-88
2023/02/19 13:02:26;;;;;;;5.28;0.60;;;18.70;41.10;;;;;;5123317;27;20219;-87
2023/02/19 13:05:04;;;;;;;8.68;0.60;;;18.70;41.00;;;;;;5105339;27;20681;-88
2023/02/19 13:07:37;;;;;;;10.85;1.02;;;18.70;41.00;;;;;;5105983;27;20171;-87
2023/02/19 13:10:25;;;;;;;8.15;0.60;;;18.70;41.70;;;;;;5104603;27;20167;-87
2023/02/19 13:12:52;;;;;;;9.05;0.80;;;18.60;41.20;;;;;;5120736;27;20523;-88
2023/02/19 13:15:35;;;;;;;4.43;0.43;;;18.70;40.80;;;;;;5103177;27;20167;-88
2023/02/19 13:18:02;;;;;;;3.70;0.80;;;18.70;40.60;;;;;;5121631;27;20163;-87
2023/02/19 13:20:34;;;;;;;5.05;0.88;;;18.70;40.60;;;;;;5120965;27;20183;-86
2023/02/19 13:26:23;;;;;;;5.03;0.50;;;18.70;40.40;;;;;;5103012;28;20165;-88
2023/02/19 13:29:23;;;;;;;1.70;0.40;;;18.70;40.50;;;;;;5082864;28;20227;-87
2023/02/19 13:32:23;;;;;;;5.78;0.50;;;18.70;40.60;;;;;;5098710;28;20267;-88
2023/02/19 13:35:23;;;;;;;4.07;0.45;;;18.80;40.80;;;;;;5099255;28;20176;-89
2023/02/19 13:37:51;;;;;;;4.55;0.50;;;18.80;40.90;;;;;;5085569;28;20275;-88